Pagrindinis puslapis
METAR-TAF:

METAR-TAF

Oro uostai :

Sogndalis, Norvegija

platuma: 61-09N, ilguma: 007-08E, Aukštis: 49 m

Dabartinis oras

Ataskaita buvo paskelbta 49 minutes, ne 20:50 UTC
Vėjas 6 kt iš Rytų/Šiaurės Rytų
Temperatūra 11°C
Drėgmė 100%
Slėgis 1012 hPa
Matomumas: 2000 m
Mažai debesys
lietus, rūkas

METAR: ENSG 172050Z 06006KT 0800 2000W -RA FG FEW/// VV005 11/11 Q1012 RMK WIND 3806FT 17010KT

Laikas: 23:39 (21:39 UTC)


TAF: trūkstamas

Orai ataskaitas ir orų prognozės (METAR, TAF).

turimą stotys yra geltonos ir raudonos taškus žemėlapyje.

Perkelti pele per norėdami pamatyti stoties vardą.

Tada spustelėkite, norėdami matyti oro stebėjimo ir prognozės.

Norėdami pakeisti žemėlapį: spustelėkite ant žalios mygtukų su juodo kryžiaus žemyn,; žalią mygtuką su brūkšneliu, jei norite nutolinti; arba žalių rodyklių gretimoms žemėlapius.


METAR-TAF: